Time;durP1;ratioP1;P1;durP2;ratioP2;P2;SDS_P1;SDS_P2;PMS_P1;PMS_P2;Temp;Humidity;BMP_temperature;BMP_pressure;BME280_temperature;BME280_humidity;BME280_pressure;Samples;Min_cycle;Max_cycle;Signal;HPM_P1;HPM_P2
2021/06/09 00:00:10;;;;;;;;;4.75;4.75;;;;;27.15;34.62;101409.94;4991513;28;57622;-73
2021/06/09 00:02:36;;;;;;;;;6.75;6.75;;;;;27.11;34.72;101411.91;4967012;28;46594;-74
2021/06/09 00:05:01;;;;;;;;;7.75;6.75;;;;;27.10;34.18;101409.28;4983250;28;45345;-73
2021/06/09 00:07:26;;;;;;;;;8.50;6.50;;;;;27.04;35.10;101408.66;4976417;28;45581;-73
2021/06/09 00:09:52;;;;;;;;;6.00;5.75;;;;;27.06;35.01;101413.94;4999129;28;46008;-74
2021/06/09 00:12:17;;;;;;;;;6.00;6.00;;;;;27.02;34.86;101401.63;4959506;28;64123;-74
2021/06/09 00:14:43;;;;;;;;;6.00;6.00;;;;;27.01;34.74;101414.13;4982908;28;45797;-74
2021/06/09 00:17:08;;;;;;;;;5.50;5.25;;;;;27.01;34.89;101414.13;4966214;28;54851;-74
2021/06/09 00:19:33;;;;;;;;;6.00;6.00;;;;;26.98;34.60;101408.91;4982812;28;46119;-74
2021/06/09 00:21:59;;;;;;;;;9.00;8.00;;;;;26.95;34.43;101403.72;4975894;28;45191;-73
2021/06/09 00:24:24;;;;;;;;;8.25;8.25;;;;;26.94;35.09;101417.19;4998906;28;57814;-73
2021/06/09 00:26:51;;;;;;;;;8.25;6.25;;;;;26.93;34.92;101415.44;4991834;28;45233;-73
2021/06/09 00:29:17;;;;;;;;;6.00;6.00;;;;;26.91;34.51;101415.50;4998767;28;47432;-73
2021/06/09 00:31:42;;;;;;;;;6.75;6.75;;;;;26.87;35.00;101408.56;4982801;28;45238;-73
2021/06/09 00:34:07;;;;;;;;;8.00;7.00;;;;;26.87;35.06;101408.56;4962609;28;60805;-74
2021/06/09 00:36:36;;;;;;;;;5.00;5.00;;;;;26.84;34.89;101405.16;4982738;28;45295;-73
2021/06/09 00:39:01;;;;;;;;;7.50;6.00;;;;;26.84;34.75;101408.69;4965846;28;54003;-73
2021/06/09 00:41:27;;;;;;;;;5.25;4.25;;;;;26.79;34.98;101405.41;4982501;28;45438;-73
2021/06/09 00:43:52;;;;;;;;;7.25;7.25;;;;;26.81;34.76;101406.19;4982481;28;45338;-74
2021/06/09 00:46:18;;;;;;;;;6.50;6.00;;;;;26.79;35.25;101413.44;4982556;28;45359;-73
2021/06/09 00:48:43;;;;;;;;;6.00;6.00;;;;;26.78;35.21;101414.38;4985788;28;46223;-74
2021/06/09 00:51:16;;;;;;;;;5.00;5.00;;;;;26.75;34.98;101406.47;5009143;28;45340;-73
2021/06/09 00:53:48;;;;;;;;;4.75;4.75;;;;;26.70;35.15;101400.47;4989152;28;45367;-73
2021/06/09 00:56:13;;;;;;;;;6.75;4.50;;;;;26.72;35.38;101409.31;4979285;28;45256;-73
2021/06/09 00:58:40;;;;;;;;;7.25;5.75;;;;;26.71;35.15;101399.53;4999825;28;45416;-74
2021/06/09 01:01:06;;;;;;;;;7.00;7.00;;;;;26.69;35.00;101401.44;4995117;28;45351;-73
2021/06/09 01:03:32;;;;;;;;;5.75;5.75;;;;;26.68;35.16;101395.19;4985851;28;45367;-73
2021/06/09 01:05:57;;;;;;;;;6.00;4.25;;;;;26.67;35.13;101393.47;4985811;28;45491;-73
2021/06/09 01:08:25;;;;;;;;;8.75;6.00;;;;;26.66;35.29;101393.53;5003127;28;45518;-73
2021/06/09 01:10:51;;;;;;;;;5.00;5.00;;;;;26.65;35.32;101394.47;4980709;28;45250;-74
2021/06/09 01:13:21;;;;;;;;;6.00;6.00;;;;;26.64;35.36;101390.06;5005351;28;45209;-73
2021/06/09 01:15:47;;;;;;;;;5.00;5.00;;;;;26.62;35.16;101383.91;5003264;28;45290;-73
2021/06/09 01:18:12;;;;;;;;;5.25;5.25;;;;;26.60;35.37;101385.78;4970713;28;47066;-73
2021/06/09 01:20:37;;;;;;;;;7.00;5.75;;;;;26.61;35.30;101384.84;5005268;28;45274;-74
2021/06/09 01:23:03;;;;;;;;;5.00;5.00;;;;;26.61;35.23;101392.88;4985523;28;45779;-74
2021/06/09 01:25:28;;;;;;;;;5.50;5.50;;;;;26.59;35.85;101387.59;5002742;28;45435;-74
2021/06/09 01:27:54;;;;;;;;;5.00;5.00;;;;;26.59;35.39;101379.56;4968949;28;45346;-74
2021/06/09 01:30:19;;;;;;;;;4.75;4.75;;;;;26.59;35.46;101382.25;4985482;28;45236;-74
2021/06/09 01:32:45;;;;;;;;;5.75;5.75;;;;;26.56;35.47;101373.47;4999435;28;45211;-74
2021/06/09 01:35:11;;;;;;;;;6.00;6.00;;;;;26.55;35.03;101382.47;4969017;28;45444;-74
2021/06/09 01:37:36;;;;;;;;;6.00;5.50;;;;;26.53;35.06;101379.00;5018991;28;47161;-74
2021/06/09 01:40:05;;;;;;;;;7.00;6.00;;;;;26.50;35.24;101380.00;4972001;28;45376;-73
2021/06/09 01:42:31;;;;;;;;;4.75;4.75;;;;;26.48;35.56;101380.06;5004683;28;45313;-74
2021/06/09 01:44:56;;;;;;;;;4.25;4.00;;;;;26.48;35.44;101379.19;4968941;28;45377;-74
2021/06/09 01:47:22;;;;;;;;;6.00;5.25;;;;;26.46;35.87;101379.25;4985039;28;45430;-74
2021/06/09 01:49:48;;;;;;;;;6.50;6.50;;;;;26.48;35.37;101381.88;4969007;28;45482;-73
2021/06/09 01:52:13;;;;;;;;;5.50;5.25;;;;;26.48;35.49;101380.06;4992603;28;53576;-74
2021/06/09 01:54:39;;;;;;;;;4.75;4.75;;;;;26.48;35.90;101377.38;4984942;28;45548;-74
2021/06/09 01:57:04;;;;;;;;;5.25;5.25;;;;;26.46;35.52;101379.25;5019043;28;45407;-74
2021/06/09 01:59:31;;;;;;;;;7.50;7.50;;;;;26.48;35.44;101382.72;5003431;28;46168;-73
2021/06/09 02:01:56;;;;;;;;;5.50;5.50;;;;;26.47;35.85;101386.34;4989002;28;45219;-73
2021/06/09 02:04:23;;;;;;;;;6.00;6.00;;;;;26.48;35.69;101382.72;5013925;28;45417;-74
2021/06/09 02:06:49;;;;;;;;;7.75;6.75;;;;;26.48;35.79;101384.53;5008619;28;46571;-73
2021/06/09 02:09:15;;;;;;;;;4.00;4.00;;;;;26.47;35.52;101370.28;5022354;28;45426;-74
2021/06/09 02:11:41;;;;;;;;;6.00;6.00;;;;;26.48;35.49;101379.19;5021315;28;64392;-73
2021/06/09 02:14:06;;;;;;;;;6.00;6.00;;;;;26.46;35.79;101373.91;5022249;28;45404;-73
2021/06/09 02:16:39;;;;;;;;;7.00;7.00;;;;;26.46;35.25;101368.56;5004174;28;45396;-74
2021/06/09 02:19:05;;;;;;;;;5.00;5.00;;;;;26.45;35.66;101366.81;4988414;28;45427;-74
2021/06/09 02:21:31;;;;;;;;;7.75;7.75;;;;;26.45;35.49;101377.53;5020886;28;45439;-74
2021/06/09 02:23:56;;;;;;;;;5.75;5.75;;;;;26.45;36.01;101374.84;4992404;28;45458;-74
2021/06/09 02:26:22;;;;;;;;;5.75;5.75;;;;;26.44;35.70;101372.25;5001788;28;46128;-74
2021/06/09 02:28:47;;;;;;;;;6.00;6.00;;;;;26.43;35.45;101373.19;4984530;28;45496;-74
2021/06/09 02:31:13;;;;;;;;;5.25;5.25;;;;;26.38;35.20;101365.38;4967652;28;57382;-73
2021/06/09 02:33:38;;;;;;;;;5.00;5.00;;;;;26.42;35.13;101371.47;5001373;28;61762;-74
2021/06/09 02:36:05;;;;;;;;;5.75;5.00;;;;;26.41;35.06;101370.59;5001528;28;51901;-74
2021/06/09 02:38:30;;;;;;;;;5.00;5.00;;;;;26.38;34.80;101367.19;4968229;28;45251;-74
2021/06/09 02:40:57;;;;;;;;;6.50;6.25;;;;;26.35;35.12;101360.13;4967918;28;45670;-73
2021/06/09 02:43:29;;;;;;;;;5.00;5.00;;;;;26.35;35.23;101368.16;4984524;28;45305;-73
2021/06/09 02:45:55;;;;;;;;;8.00;8.00;;;;;26.35;35.18;101370.84;4985209;28;45488;-74
2021/06/09 02:48:24;;;;;;;;;7.00;7.00;;;;;26.33;34.89;101363.84;4967619;28;53628;-74
2021/06/09 02:50:50;;;;;;;;;7.25;7.25;;;;;26.32;35.59;101362.94;4975119;28;45338;-74
2021/06/09 02:53:25;;;;;;;;;7.25;7.25;;;;;26.36;35.21;101372.56;4997081;28;45318;-72
2021/06/09 02:56:08;;;;;;;;;9.00;6.25;;;;;26.36;35.67;101371.72;5003687;28;45587;-72
2021/06/09 02:58:53;;;;;;;;;6.00;6.00;;;;;26.35;35.19;101369.97;5003727;28;45401;-73
2021/06/09 03:01:49;;;;;;;;;10.50;8.25;;;;;26.32;35.27;101376.31;4988481;28;45395;-73
2021/06/09 03:04:16;;;;;;;;;8.75;6.25;;;;;26.31;35.11;101373.72;4991221;28;45389;-73
2021/06/09 03:07:07;;;;;;;;;5.75;5.75;;;;;26.27;34.77;101370.34;4997235;28;45650;-72
2021/06/09 03:09:44;;;;;;;;;9.25;8.75;;;;;26.27;34.98;101377.50;4968465;28;45292;-72
2021/06/09 03:12:27;;;;;;;;;8.50;7.75;;;;;26.23;35.78;101378.56;4977837;28;45422;-72
2021/06/09 03:15:11;;;;;;;;;5.75;5.75;;;;;26.21;36.01;101371.47;5001750;28;45306;-72
2021/06/09 03:17:47;;;;;;;;;9.00;8.00;;;;;26.17;35.87;101366.34;4966855;28;46881;-73
2021/06/09 03:20:18;;;;;;;;;8.75;7.00;;;;;26.17;36.03;101369.03;4971744;28;45585;-73
2021/06/09 03:23:00;;;;;;;;;8.50;7.00;;;;;26.16;35.99;101375.31;4988049;28;45367;-73
2021/06/09 03:25:31;;;;;;;;;7.50;7.50;;;;;26.16;36.44;101378.00;4968099;28;45509;-73
2021/06/09 03:28:12;;;;;;;;;7.00;7.00;;;;;26.13;36.17;101378.09;4967247;28;45320;-73
2021/06/09 03:30:38;;;;;;;;;10.25;9.00;;;;;26.07;36.57;101381.94;4968053;28;45438;-73
2021/06/09 03:33:05;;;;;;;;;8.75;6.00;;;;;26.05;36.60;101377.59;4967646;28;45302;-73
2021/06/09 03:35:37;;;;;;;;;7.50;7.25;;;;;26.07;37.02;101383.75;4967362;28;45244;-72
2021/06/09 03:38:04;;;;;;;;;6.50;6.50;;;;;26.07;36.55;101383.75;5001244;28;45376;-72
2021/06/09 03:40:31;;;;;;;;;9.00;7.75;;;;;26.04;37.05;101381.19;4983165;28;45311;-73
2021/06/09 03:42:58;;;;;;;;;6.00;6.00;;;;;26.05;37.41;101388.28;4983699;28;45208;-73
2021/06/09 03:45:26;;;;;;;;;7.00;6.75;;;;;26.03;37.07;101380.34;4999711;28;45607;-73
2021/06/09 03:47:51;;;;;;;;;6.75;6.75;;;;;25.99;37.04;101380.56;4983141;28;45470;-73
2021/06/09 03:50:17;;;;;;;;;7.50;7.25;;;;;25.99;37.04;101383.22;4983427;28;45497;-73
2021/06/09 03:52:42;;;;;;;;;7.00;7.00;;;;;25.95;36.84;101379.81;4985289;28;45341;-72
2021/06/09 03:55:08;;;;;;;;;7.75;7.00;;;;;25.95;37.08;101379.81;4984266;28;45819;-73
2021/06/09 03:57:34;;;;;;;;;9.00;8.75;;;;;25.95;37.72;101378.94;4955975;28;48106;-73
2021/06/09 03:59:59;;;;;;;;;7.00;7.00;;;;;25.96;37.18;101378.00;4971402;28;45300;-72
2021/06/09 04:02:25;;;;;;;;;9.00;7.50;;;;;25.96;37.09;101378.00;4956011;28;45536;-73
2021/06/09 04:04:52;;;;;;;;;8.00;7.50;;;;;25.94;37.33;101378.06;4982258;28;70708;-73
2021/06/09 04:07:18;;;;;;;;;7.25;7.25;;;;;25.95;37.33;101376.25;4991302;28;46140;-73
2021/06/09 04:09:43;;;;;;;;;7.00;7.00;;;;;25.93;37.32;101371.00;4966516;28;45898;-72
2021/06/09 04:12:09;;;;;;;;;7.25;7.00;;;;;25.90;36.81;101371.13;4978184;28;45192;-72
2021/06/09 04:14:37;;;;;;;;;6.00;6.00;;;;;25.88;37.01;101371.19;4963514;28;45367;-73
2021/06/09 04:17:04;;;;;;;;;8.00;7.00;;;;;25.86;37.01;101366.84;4966924;28;46569;-73
2021/06/09 04:19:29;;;;;;;;;7.25;7.25;;;;;25.84;37.56;101363.38;4963561;28;45288;-73
2021/06/09 04:21:55;;;;;;;;;9.00;8.00;;;;;25.84;37.21;101376.75;4974234;28;46037;-73
2021/06/09 04:24:20;;;;;;;;;6.50;6.50;;;;;25.84;37.43;101374.94;4983819;28;57243;-73
2021/06/09 04:26:46;;;;;;;;;7.50;7.50;;;;;25.85;37.20;101375.81;4958327;28;50838;-73
2021/06/09 04:29:11;;;;;;;;;8.00;8.00;;;;;25.82;36.95;101376.81;4984767;28;45226;-73
2021/06/09 04:31:37;;;;;;;;;7.75;6.50;;;;;25.80;36.96;101373.34;4954100;28;59986;-73
2021/06/09 04:34:02;;;;;;;;;6.00;6.00;;;;;25.76;37.11;101373.53;4967107;28;45433;-73
2021/06/09 04:36:28;;;;;;;;;6.00;6.00;;;;;25.75;37.74;101379.84;4982623;28;48311;-73
2021/06/09 04:38:53;;;;;;;;;8.25;6.00;;;;;25.73;37.49;101377.22;4999724;28;45553;-73
2021/06/09 04:41:20;;;;;;;;;7.25;7.25;;;;;25.74;37.33;101381.63;5002219;28;45239;-73
2021/06/09 04:43:46;;;;;;;;;7.00;7.00;;;;;25.71;37.30;101378.22;4985257;28;45417;-73
2021/06/09 04:46:19;;;;;;;;;6.50;6.00;;;;;25.71;37.37;101380.88;4973876;28;47396;-73
2021/06/09 04:49:01;;;;;;;;;6.00;6.00;;;;;25.71;36.90;101389.78;4984269;28;45554;-73
2021/06/09 04:51:28;;;;;;;;;7.75;6.75;;;;;25.67;37.29;101381.94;4961111;28;45391;-73
2021/06/09 04:53:53;;;;;;;;;7.00;7.00;;;;;25.65;37.29;101392.69;4985146;28;45315;-73
2021/06/09 04:56:21;;;;;;;;;6.50;6.50;;;;;25.58;37.22;101389.41;4981518;28;68110;-73
2021/06/09 04:58:47;;;;;;;;;6.00;5.00;;;;;25.62;37.24;101393.69;4982183;28;45472;-73
2021/06/09 05:01:12;;;;;;;;;6.75;6.00;;;;;25.60;37.01;101394.69;4988484;28;45376;-73
2021/06/09 05:03:38;;;;;;;;;6.25;5.00;;;;;25.61;37.17;101394.63;4999269;28;45737;-74
2021/06/09 05:06:03;;;;;;;;;7.00;7.00;;;;;25.60;37.05;101394.69;5007338;28;68289;-73
2021/06/09 05:08:28;;;;;;;;;5.75;5.75;;;;;25.57;37.63;101392.16;4999293;28;45442;-74
2021/06/09 05:10:57;;;;;;;;;7.75;7.00;;;;;25.62;37.03;101399.03;4981557;28;54546;-73
2021/06/09 05:13:29;;;;;;;;;4.75;4.75;;;;;25.61;37.52;101402.63;4982047;28;45287;-74
2021/06/09 05:15:57;;;;;;;;;6.25;6.25;;;;;25.61;37.48;101396.41;4999480;28;46232;-74
2021/06/09 05:18:28;;;;;;;;;9.00;7.00;;;;;25.57;36.84;101405.53;4988606;28;45424;-73
2021/06/09 05:20:53;;;;;;;;;7.00;7.00;;;;;25.53;37.65;101401.22;4985804;28;45351;-73
2021/06/09 05:23:41;;;;;;;;;7.75;7.00;;;;;25.58;38.32;101407.25;4987816;28;45250;-73
2021/06/09 05:26:08;;;;;;;;;6.00;6.00;;;;;25.62;38.59;101403.50;5002566;28;46825;-74
2021/06/09 05:28:37;;;;;;;;;9.75;6.00;;;;;25.64;38.42;101404.34;4982121;28;45523;-76
2021/06/09 05:31:02;;;;;;;;;8.00;8.00;;;;;25.66;38.52;101397.09;4949848;28;45392;-70
2021/06/09 05:33:28;;;;;;;;;9.75;9.75;;;;;25.68;38.96;101391.69;4983085;28;53091;-76
2021/06/09 05:35:54;;;;;;;;;9.00;9.00;;;;;25.72;39.47;101396.88;4985395;28;46867;-74
2021/06/09 05:38:19;;;;;;;;;8.50;8.00;;;;;25.75;39.80;101395.88;5012828;28;45437;-75
2021/06/09 05:40:45;;;;;;;;;9.25;8.50;;;;;25.80;39.70;101392.06;4984882;28;45524;-75
2021/06/09 05:43:11;;;;;;;;;9.25;9.25;;;;;25.82;38.99;101398.22;4971222;28;45648;-76
2021/06/09 05:45:36;;;;;;;;;9.00;7.75;;;;;25.85;39.15;101402.56;4965332;28;50234;-75
2021/06/09 05:48:02;;;;;;;;;7.50;7.50;;;;;25.86;39.55;101393.59;4968927;28;45390;-75
2021/06/09 05:50:29;;;;;;;;;6.75;6.75;;;;;25.89;39.09;101390.81;4971735;28;45240;-76
2021/06/09 05:52:58;;;;;;;;;13.25;9.25;;;;;25.95;39.42;101397.66;5016830;28;45515;-73
2021/06/09 05:55:26;;;;;;;;;9.25;8.75;;;;;25.97;38.77;101391.31;4985477;28;45358;-75
2021/06/09 05:57:52;;;;;;;;;9.25;9.25;;;;;26.04;38.87;101397.25;5002743;28;45400;-76
2021/06/09 06:00:28;;;;;;;;;11.00;8.75;;;;;26.04;39.71;101394.56;4990178;28;45239;-77
2021/06/09 06:02:54;;;;;;;;;13.00;11.75;;;;;26.09;39.34;101401.47;4998026;28;45626;-76
2021/06/09 06:05:22;;;;;;;;;13.00;10.75;;;;;26.10;39.33;101402.34;4987863;28;47545;-75
2021/06/09 06:07:48;;;;;;;;;11.00;10.25;;;;;26.10;39.76;101400.53;4992175;28;45523;-74
2021/06/09 06:10:14;;;;;;;;;11.25;10.25;;;;;26.13;39.30;101402.19;5021301;28;45534;-76
2021/06/09 06:12:39;;;;;;;;;10.25;10.25;;;;;26.14;39.38;101404.78;4988381;28;45357;-75
2021/06/09 06:15:06;;;;;;;;;11.75;10.75;;;;;26.15;39.96;101405.66;4968983;28;45358;-76
2021/06/09 06:17:31;;;;;;;;;11.00;9.50;;;;;26.15;38.68;101402.97;4980957;28;45315;-73
2021/06/09 06:19:57;;;;;;;;;11.75;10.00;;;;;26.16;38.79;101397.59;5003712;28;60112;-73
2021/06/09 06:22:22;;;;;;;;;10.75;10.00;;;;;26.18;38.91;101403.72;5004361;28;45237;-75
2021/06/09 06:24:49;;;;;;;;;11.00;11.00;;;;;26.18;39.59;101392.16;4987347;28;45275;-75
2021/06/09 06:27:15;;;;;;;;;11.25;10.50;;;;;26.23;38.93;101392.81;4987713;28;45445;-74
2021/06/09 06:29:41;;;;;;;;;12.50;11.50;;;;;26.23;38.40;101395.47;4987680;28;45498;-75
2021/06/09 06:32:08;;;;;;;;;13.00;12.50;;;;;26.27;39.26;101393.56;4987818;28;45349;-73
2021/06/09 06:34:35;;;;;;;;;15.50;12.00;;;;;26.30;38.33;101398.75;4984686;28;45446;-75
2021/06/09 06:37:00;;;;;;;;;16.00;15.00;;;;;26.31;39.22;101392.44;4967940;28;45430;-74
2021/06/09 06:39:26;;;;;;;;;17.75;14.00;;;;;26.35;38.31;101391.38;4986441;28;45255;-74
2021/06/09 06:41:54;;;;;;;;;18.50;18.25;;;;;26.36;38.52;101388.63;5009241;28;45506;-74
2021/06/09 06:44:20;;;;;;;;;17.25;17.25;;;;;26.40;38.96;101395.59;4986303;28;47913;-75
2021/06/09 06:46:49;;;;;;;;;21.50;18.75;;;;;26.41;38.37;101397.38;4990853;28;45428;-77
2021/06/09 06:49:16;;;;;;;;;19.75;16.50;;;;;26.40;38.12;101406.31;4995096;28;45435;-78
2021/06/09 06:51:41;;;;;;;;;17.25;16.50;;;;;26.37;38.18;101398.41;4972553;28;45497;-74
2021/06/09 06:54:07;;;;;;;;;23.25;22.25;;;;;26.37;37.50;101394.84;4981217;28;51201;-77
2021/06/09 06:56:33;;;;;;;;;19.50;17.50;;;;;26.36;38.08;101391.31;4973545;28;45471;-77
2021/06/09 06:58:58;;;;;;;;;21.75;19.25;;;;;26.39;37.61;101396.56;4965489;28;45459;-77
2021/06/09 07:01:28;;;;;;;;;18.25;17.50;;;;;26.41;39.39;101397.38;5005814;28;46133;-77
2021/06/09 07:03:54;;;;;;;;;20.75;18.25;;;;;26.43;38.02;101403.50;5006862;28;46226;-76
2021/06/09 07:06:19;;;;;;;;;18.25;17.75;;;;;26.43;38.01;101402.66;4985365;28;59693;-75
2021/06/09 07:08:46;;;;;;;;;19.00;17.50;;;;;26.40;38.30;101405.44;4972173;28;59790;-76
2021/06/09 07:11:12;;;;;;;;;24.75;20.00;;;;;26.37;37.80;101406.44;4973204;28;45957;-76
2021/06/09 07:13:37;;;;;;;;;21.00;17.50;;;;;26.33;37.47;101410.19;4976863;28;45877;-76
2021/06/09 07:16:05;;;;;;;;;23.25;21.75;;;;;26.32;37.80;101407.56;4972852;28;45346;-76
2021/06/09 07:18:34;;;;;;;;;22.25;21.00;;;;;26.28;37.65;101406.84;5001844;28;45261;-75
2021/06/09 07:20:59;;;;;;;;;23.00;19.75;;;;;26.31;37.83;101405.84;4987212;28;45454;-75
2021/06/09 07:23:25;;;;;;;;;21.25;19.25;;;;;26.35;37.91;101405.63;4982597;28;45375;-75
2021/06/09 07:25:51;;;;;;;;;19.00;16.00;;;;;26.33;38.92;101398.63;5005755;28;45393;-75
2021/06/09 07:28:18;;;;;;;;;23.50;20.00;;;;;26.39;37.90;101404.56;4978073;28;45284;-75
2021/06/09 07:30:43;;;;;;;;;20.75;17.50;;;;;26.41;38.35;101401.81;5000714;28;45267;-75
2021/06/09 07:33:09;;;;;;;;;20.00;17.25;;;;;26.42;39.19;101398.25;4983568;28;47176;-76
2021/06/09 07:35:35;;;;;;;;;17.50;16.00;;;;;26.42;38.58;101403.59;4973958;28;45609;-76
2021/06/09 07:38:15;;;;;;;;;22.25;22.00;;;;;26.45;38.93;101415.00;4983308;28;45416;-76
2021/06/09 07:40:42;;;;;;;;;18.50;17.25;;;;;26.45;38.89;101401.63;4982561;28;45314;-75
2021/06/09 07:43:13;;;;;;;;;21.00;20.00;;;;;26.53;38.93;101409.31;4983178;28;47197;-81
2021/06/09 07:45:39;;;;;;;;;20.25;19.25;;;;;26.57;38.35;101407.34;5005409;28;45445;-82
2021/06/09 07:48:05;;;;;;;;;24.00;21.50;;;;;26.62;37.86;101416.03;4960095;28;45363;-81
2021/06/09 07:50:40;;;;;;;;;23.75;22.00;;;;;26.60;37.67;101405.41;5004666;28;45499;-78
2021/06/09 07:53:07;;;;;;;;;24.25;22.75;;;;;26.61;37.42;101411.63;4992991;28;48138;-81
2021/06/09 07:55:33;;;;;;;;;26.75;23.25;;;;;26.58;37.26;101404.59;4963513;28;45754;-79
2021/06/09 07:58:02;;;;;;;;;25.25;22.50;;;;;26.54;37.41;101405.69;4977243;28;45854;-79
2021/06/09 08:00:28;;;;;;;;;22.25;21.50;;;;;26.54;37.83;101408.38;5000554;28;45748;-79
2021/06/09 08:02:54;;;;;;;;;20.25;19.00;;;;;26.57;37.83;101404.66;4985766;28;56274;-77
2021/06/09 08:05:20;;;;;;;;;20.75;19.50;;;;;26.60;37.40;101416.13;4996976;28;45324;-80
2021/06/09 08:07:45;;;;;;;;;21.25;18.75;;;;;26.64;38.07;101414.16;4987025;28;45793;-82
2021/06/09 08:10:11;;;;;;;;;22.00;19.00;;;;;26.68;37.70;101413.09;4985243;28;45394;-80
2021/06/09 08:12:37;;;;;;;;;26.00;21.25;;;;;26.71;38.02;101415.59;4986809;28;45333;-78
2021/06/09 08:15:03;;;;;;;;;20.50;19.50;;;;;26.75;37.31;101410.00;4987990;28;45374;-89
2021/06/09 08:17:28;;;;;;;;;20.00;20.00;;;;;26.77;37.34;101412.66;5008050;28;45349;-86
2021/06/09 08:19:54;;;;;;;;;20.50;19.00;;;;;26.81;37.52;101413.34;4985322;28;44854;-89
2021/06/09 08:22:19;;;;;;;;;17.50;17.00;;;;;26.81;36.86;101411.53;5002141;28;45365;-87
2021/06/09 08:24:44;;;;;;;;;19.25;19.00;;;;;26.77;37.17;101408.16;4998001;28;45932;-86
2021/06/09 08:27:10;;;;;;;;;21.00;19.75;;;;;26.70;37.33;101406.72;4995399;28;62490;-82
2021/06/09 08:29:38;;;;;;;;;21.75;17.25;;;;;26.68;37.14;101410.41;4989632;28;45575;-83
2021/06/09 08:32:04;;;;;;;;;16.75;16.75;;;;;26.66;37.17;101414.94;5003589;28;46988;-82
2021/06/09 08:34:30;;;;;;;;;12.75;12.50;;;;;26.62;36.93;101410.69;4992752;28;45395;-80
2021/06/09 08:36:56;;;;;;;;;18.25;16.00;;;;;26.63;37.16;101404.38;4976289;28;45031;-83
2021/06/09 08:39:22;;;;;;;;;16.75;15.00;;;;;26.70;37.01;101404.03;5010438;28;45791;-82
2021/06/09 08:41:47;;;;;;;;;16.50;15.75;;;;;26.72;36.86;101404.81;5001859;28;45895;-81
2021/06/09 08:44:13;;;;;;;;;11.75;11.75;;;;;26.73;36.61;101400.31;4985531;28;45389;-80
2021/06/09 08:46:38;;;;;;;;;15.75;15.75;;;;;26.75;36.53;101406.47;4990687;28;56861;-79
2021/06/09 08:49:04;;;;;;;;;14.25;13.25;;;;;26.75;36.48;101406.47;5000564;28;45242;-77
2021/06/09 08:51:33;;;;;;;;;13.50;12.25;;;;;26.80;36.31;101398.22;5015738;28;45398;-79
2021/06/09 08:54:00;;;;;;;;;12.00;11.00;;;;;26.84;36.33;101398.00;4997643;28;45342;-83
2021/06/09 08:56:25;;;;;;;;;15.75;13.50;;;;;26.91;36.44;101402.13;4961049;28;45304;-81
2021/06/09 08:58:51;;;;;;;;;13.25;13.00;;;;;26.94;36.57;101404.66;4970619;28;45539;-79
2021/06/09 09:01:17;;;;;;;;;15.75;14.00;;;;;26.93;36.10;101404.72;4991795;28;45520;-79
2021/06/09 09:03:44;;;;;;;;;12.75;11.50;;;;;26.99;36.06;101409.78;4998323;28;45429;-78
2021/06/09 09:06:09;;;;;;;;;14.50;13.00;;;;;26.95;35.48;101402.84;5012031;28;45359;-77
2021/06/09 09:08:35;;;;;;;;;13.00;12.00;;;;;26.93;35.15;101408.28;4971182;28;45745;-76
2021/06/09 09:11:00;;;;;;;;;10.00;10.00;;;;;26.84;34.80;101406.03;4985187;28;46679;-76
2021/06/09 09:13:26;;;;;;;;;12.50;11.50;;;;;26.84;34.66;101407.84;5003894;28;45646;-78
2021/06/09 09:15:57;;;;;;;;;10.75;10.00;;;;;26.84;34.89;101416.75;4985436;28;45340;-76
2021/06/09 09:18:37;;;;;;;;;14.00;12.00;;;;;26.81;34.18;101411.53;4988883;28;45281;-79
2021/06/09 09:21:02;;;;;;;;;9.25;9.25;;;;;26.85;34.59;101409.59;4969877;28;47020;-77
2021/06/09 09:23:31;;;;;;;;;16.00;12.25;;;;;26.91;34.96;101411.97;4968719;28;45558;-77
2021/06/09 09:25:58;;;;;;;;;10.25;10.25;;;;;26.95;34.09;101422.47;4969549;28;45476;-81
2021/06/09 09:28:32;;;;;;;;;10.00;10.00;;;;;27.02;33.78;101418.56;4968818;28;45310;-82
2021/06/09 09:31:07;;;;;;;;;11.25;9.00;;;;;27.09;34.02;101423.63;4982330;28;48189;-82
2021/06/09 09:33:32;;;;;;;;;10.75;9.25;;;;;27.11;34.04;101419.97;4996124;28;45238;-78
2021/06/09 09:35:58;;;;;;;;;9.75;9.75;;;;;27.16;34.19;101428.63;4994489;28;45416;-78
2021/06/09 09:38:28;;;;;;;;;12.25;8.50;;;;;27.17;34.24;101429.50;4985437;28;62801;-79
2021/06/09 09:41:05;;;;;;;;;10.50;9.25;;;;;27.17;34.21;101427.66;4969907;28;46189;-78
2021/06/09 09:43:43;;;;;;;;;10.00;10.00;;;;;27.17;34.05;101430.34;4994577;28;45196;-79
2021/06/09 09:46:09;;;;;;;;;9.00;9.00;;;;;27.19;34.26;101427.59;4996349;28;45291;-76
2021/06/09 09:48:37;;;;;;;;;10.00;8.00;;;;;27.16;33.98;101428.63;5000238;28;45416;-88
2021/06/09 09:51:03;;;;;;;;;10.50;9.75;;;;;27.16;34.06;101425.94;5022254;28;45499;-75
2021/06/09 09:53:30;;;;;;;;;12.50;9.50;;;;;27.14;34.23;101421.59;5005203;28;45355;-76
2021/06/09 09:56:12;;;;;;;;;14.75;12.50;;;;;27.19;34.38;101427.59;4973157;28;45359;-76
2021/06/09 09:59:00;;;;;;;;;11.50;9.75;;;;;27.19;34.80;101417.78;5006542;28;45380;-76
2021/06/09 10:01:26;;;;;;;;;8.75;8.75;;;;;27.23;34.13;101415.78;4995705;28;47295;-76
2021/06/09 10:03:53;;;;;;;;;11.00;10.50;;;;;27.24;35.12;101421.06;4987234;28;45456;-77
2021/06/09 10:06:25;;;;;;;;;11.75;11.00;;;;;27.20;34.92;101406.09;4984626;28;45699;-77
2021/06/09 10:08:52;;;;;;;;;8.25;8.00;;;;;27.27;35.14;101417.38;4993079;28;45527;-76
2021/06/09 10:11:18;;;;;;;;;10.75;9.75;;;;;27.29;34.74;101418.19;5002829;28;47149;-76
2021/06/09 10:13:43;;;;;;;;;9.00;9.00;;;;;27.24;35.45;101410.34;5000703;28;45350;-76
2021/06/09 10:16:28;;;;;;;;;6.25;6.25;;;;;27.28;35.27;101421.81;4968137;28;45407;-76
2021/06/09 10:19:01;;;;;;;;;8.75;8.75;;;;;27.28;34.70;101416.44;4983894;28;45318;-77
2021/06/09 10:21:30;;;;;;;;;11.25;11.25;;;;;27.33;35.42;101422.44;5001682;28;46047;-77
2021/06/09 10:24:09;;;;;;;;;10.00;9.00;;;;;27.31;36.15;101416.28;4967974;28;45444;-78
2021/06/09 10:26:55;;;;;;;;;;;;;;;;;;;;;
2021/06/09 10:29:22;;;;;;;;;10.00;8.00;;;;;27.35;36.04;101422.34;4986130;28;72872;-76
2021/06/09 10:31:56;;;;;;;;;9.50;8.75;;;;;27.26;35.52;101402.22;4993698;28;45393;-77
2021/06/09 10:34:28;;;;;;;;;10.00;9.50;;;;;27.16;36.36;101384.88;5020200;28;45600;-77
2021/06/09 10:37:18;;;;;;;;;8.75;8.75;;;;;27.25;35.58;101401.38;4987275;28;45466;-77
2021/06/09 10:39:44;;;;;;;;;9.50;9.25;;;;;27.26;35.37;101394.19;5004596;28;46173;-78
2021/06/09 10:42:13;;;;;;;;;8.75;8.75;;;;;27.23;35.57;101389.00;4990265;28;47156;-77
2021/06/09 10:45:09;;;;;;;;;;;;;;;;;;;;;
2021/06/09 10:47:37;;;;;;;;;9.00;9.00;;;;;27.24;34.66;101377.31;4990090;28;68891;-76
2021/06/09 10:50:16;;;;;;;;;;;;;;;;;;;;;
2021/06/09 10:53:15;;;;;;;;;;;;;;;;;;;;;
2021/06/09 10:55:44;;;;;;;;;11.00;9.00;;;;;27.40;36.30;101407.78;5000267;28;73918;-78
2021/06/09 10:58:27;;;;;;;;;9.75;9.00;;;;;27.39;35.76;101406.03;5001075;28;45461;-77
2021/06/09 11:01:08;;;;;;;;;;;;;;;;;;;;;
2021/06/09 11:03:45;;;;;;;;;9.75;9.75;;;;;27.33;36.25;101396.50;4984438;28;75752;-77
2021/06/09 11:06:15;;;;;;;;;9.25;9.25;;;;;27.17;36.41;101370.53;5003024;28;45420;-77
2021/06/09 11:08:43;;;;;;;;;10.00;10.00;;;;;27.31;36.45;101390.34;5019273;28;45431;-77
2021/06/09 11:11:20;;;;;;;;;11.00;10.75;;;;;27.36;35.59;101400.81;5002999;28;45430;-77
2021/06/09 11:13:51;;;;;;;;;9.00;8.00;;;;;27.39;36.06;101406.03;4986972;28;45435;-77
2021/06/09 11:16:26;;;;;;;;;9.25;9.25;;;;;27.39;36.02;101399.81;4984381;28;45524;-77
2021/06/09 11:21:50;;;;;;;;;9.00;9.00;;;;;27.24;36.32;101372.84;4972192;28;45564;-77
2021/06/09 11:24:27;;;;;;;;;;;;;;;;;;;;;
2021/06/09 11:26:53;;;;;;;;;9.50;9.50;;;;;27.35;36.03;101383.00;4992033;28;72927;-77
2021/06/09 11:29:31;;;;;;;;;9.00;9.00;;;;;27.22;36.43;101363.13;4984732;28;45249;-77
2021/06/09 11:32:17;;;;;;;;;10.00;8.25;;;;;27.37;36.10;101386.50;4967990;28;45328;-77
2021/06/09 11:34:56;;;;;;;;;9.75;9.75;;;;;27.38;35.92;101385.56;4986597;28;45452;-77